sensor_id;sensor_type;location;lat;lon;timestamp;temperature;humidity
33903;DHT22;20194;50.950;5.346;2023-03-23T00:00:56;13.10;48.60
33903;DHT22;20194;50.950;5.346;2023-03-23T00:03:21;13.10;48.90
33903;DHT22;20194;50.950;5.346;2023-03-23T00:05:48;13.00;48.70
33903;DHT22;20194;50.950;5.346;2023-03-23T00:08:19;13.00;49.30
33903;DHT22;20194;50.950;5.346;2023-03-23T00:10:52;13.10;49.30
33903;DHT22;20194;50.950;5.346;2023-03-23T00:13:25;13.00;50.60
33903;DHT22;20194;50.950;5.346;2023-03-23T00:15:51;13.00;49.40
33903;DHT22;20194;50.950;5.346;2023-03-23T00:18:19;13.00;49.60
33903;DHT22;20194;50.950;5.346;2023-03-23T00:20:49;13.10;49.60
33903;DHT22;20194;50.950;5.346;2023-03-23T00:23:19;13.00;49.60
33903;DHT22;20194;50.950;5.346;2023-03-23T00:25:50;13.00;50.20
33903;DHT22;20194;50.950;5.346;2023-03-23T00:28:16;13.00;50.40
33903;DHT22;20194;50.950;5.346;2023-03-23T00:30:42;13.10;49.80
33903;DHT22;20194;50.950;5.346;2023-03-23T00:33:10;13.10;50.00
33903;DHT22;20194;50.950;5.346;2023-03-23T00:35:39;13.10;49.90
33903;DHT22;20194;50.950;5.346;2023-03-23T00:38:05;13.10;50.10
33903;DHT22;20194;50.950;5.346;2023-03-23T00:40:31;13.10;50.60
33903;DHT22;20194;50.950;5.346;2023-03-23T00:43:01;13.10;50.70
33903;DHT22;20194;50.950;5.346;2023-03-23T00:45:28;13.10;50.80
33903;DHT22;20194;50.950;5.346;2023-03-23T00:47:54;13.10;50.60
33903;DHT22;20194;50.950;5.346;2023-03-23T00:50:21;13.10;50.80
33903;DHT22;20194;50.950;5.346;2023-03-23T00:52:47;13.10;51.50
33903;DHT22;20194;50.950;5.346;2023-03-23T00:55:17;13.10;52.20
33903;DHT22;20194;50.950;5.346;2023-03-23T00:57:44;13.10;51.60
33903;DHT22;20194;50.950;5.346;2023-03-23T01:00:10;13.10;52.00
33903;DHT22;20194;50.950;5.346;2023-03-23T01:02:36;13.10;52.60
33903;DHT22;20194;50.950;5.346;2023-03-23T01:05:02;13.00;52.40
33903;DHT22;20194;50.950;5.346;2023-03-23T01:07:28;13.00;52.50
33903;DHT22;20194;50.950;5.346;2023-03-23T01:09:56;13.10;52.60
33903;DHT22;20194;50.950;5.346;2023-03-23T01:12:23;13.10;53.00
33903;DHT22;20194;50.950;5.346;2023-03-23T01:14:50;13.00;53.50
33903;DHT22;20194;50.950;5.346;2023-03-23T01:17:16;13.00;53.60
33903;DHT22;20194;50.950;5.346;2023-03-23T01:19:42;13.00;53.80
33903;DHT22;20194;50.950;5.346;2023-03-23T01:22:07;13.00;54.20
33903;DHT22;20194;50.950;5.346;2023-03-23T01:24:33;13.00;54.30
33903;DHT22;20194;50.950;5.346;2023-03-23T01:26:59;12.90;54.60
33903;DHT22;20194;50.950;5.346;2023-03-23T01:29:34;13.00;54.90
33903;DHT22;20194;50.950;5.346;2023-03-23T01:32:00;13.00;54.80
33903;DHT22;20194;50.950;5.346;2023-03-23T01:34:26;13.00;54.90
33903;DHT22;20194;50.950;5.346;2023-03-23T01:36:52;12.90;55.50
33903;DHT22;20194;50.950;5.346;2023-03-23T01:39:18;12.90;55.50
33903;DHT22;20194;50.950;5.346;2023-03-23T01:41:44;12.90;56.00
33903;DHT22;20194;50.950;5.346;2023-03-23T01:46:42;12.90;56.10
33903;DHT22;20194;50.950;5.346;2023-03-23T01:49:10;12.90;56.60
33903;DHT22;20194;50.950;5.346;2023-03-23T01:51:43;12.80;57.10
33903;DHT22;20194;50.950;5.346;2023-03-23T01:54:14;12.90;56.90
33903;DHT22;20194;50.950;5.346;2023-03-23T01:56:48;12.90;56.60
33903;DHT22;20194;50.950;5.346;2023-03-23T01:59:15;12.80;57.00
33903;DHT22;20194;50.950;5.346;2023-03-23T02:01:42;12.80;57.10
33903;DHT22;20194;50.950;5.346;2023-03-23T02:04:11;12.80;57.50
33903;DHT22;20194;50.950;5.346;2023-03-23T02:06:38;12.90;57.40
33903;DHT22;20194;50.950;5.346;2023-03-23T02:09:04;12.80;57.50
33903;DHT22;20194;50.950;5.346;2023-03-23T02:11:33;12.80;57.70
33903;DHT22;20194;50.950;5.346;2023-03-23T02:13:59;12.80;57.80
33903;DHT22;20194;50.950;5.346;2023-03-23T02:24:50;12.80;57.20
33903;DHT22;20194;50.950;5.346;2023-03-23T02:28:00;12.90;57.40
33903;DHT22;20194;50.950;5.346;2023-03-23T02:35:45;12.80;58.00
33903;DHT22;20194;50.950;5.346;2023-03-23T02:38:19;12.80;57.30
33903;DHT22;20194;50.950;5.346;2023-03-23T02:40:49;12.90;57.30
33903;DHT22;20194;50.950;5.346;2023-03-23T02:43:20;12.90;56.80
33903;DHT22;20194;50.950;5.346;2023-03-23T02:45:46;12.90;56.80
33903;DHT22;20194;50.950;5.346;2023-03-23T02:48:14;12.90;56.50
33903;DHT22;20194;50.950;5.346;2023-03-23T02:50:44;12.90;56.30
33903;DHT22;20194;50.950;5.346;2023-03-23T02:53:12;12.90;55.90
33903;DHT22;20194;50.950;5.346;2023-03-23T02:55:41;12.90;56.00
33903;DHT22;20194;50.950;5.346;2023-03-23T02:58:12;12.90;55.30
33903;DHT22;20194;50.950;5.346;2023-03-23T03:00:38;12.90;55.30
33903;DHT22;20194;50.950;5.346;2023-03-23T03:03:06;12.90;55.80
33903;DHT22;20194;50.950;5.346;2023-03-23T03:05:40;12.90;54.80
33903;DHT22;20194;50.950;5.346;2023-03-23T03:10:48;12.90;53.90
33903;DHT22;20194;50.950;5.346;2023-03-23T03:21:45;12.90;52.20
33903;DHT22;20194;50.950;5.346;2023-03-23T03:24:15;13.00;52.00
33903;DHT22;20194;50.950;5.346;2023-03-23T03:26:46;13.00;51.30
33903;DHT22;20194;50.950;5.346;2023-03-23T03:29:25;13.00;50.60
33903;DHT22;20194;50.950;5.346;2023-03-23T03:31:53;13.00;51.10
33903;DHT22;20194;50.950;5.346;2023-03-23T03:34:22;13.00;50.20
33903;DHT22;20194;50.950;5.346;2023-03-23T03:36:52;13.10;49.40
33903;DHT22;20194;50.950;5.346;2023-03-23T03:39:19;13.10;48.50
33903;DHT22;20194;50.950;5.346;2023-03-23T03:41:46;13.10;48.10
33903;DHT22;20194;50.950;5.346;2023-03-23T03:44:12;13.10;47.50
33903;DHT22;20194;50.950;5.346;2023-03-23T03:46:38;13.00;47.30
33903;DHT22;20194;50.950;5.346;2023-03-23T03:49:07;13.00;46.20
33903;DHT22;20194;50.950;5.346;2023-03-23T03:51:34;13.00;46.10
33903;DHT22;20194;50.950;5.346;2023-03-23T03:54:01;13.00;45.80
33903;DHT22;20194;50.950;5.346;2023-03-23T03:56:27;13.10;46.20
33903;DHT22;20194;50.950;5.346;2023-03-23T03:58:53;13.10;45.70
33903;DHT22;20194;50.950;5.346;2023-03-23T04:01:21;13.00;45.70
33903;DHT22;20194;50.950;5.346;2023-03-23T04:03:48;13.00;45.30
33903;DHT22;20194;50.950;5.346;2023-03-23T04:06:15;13.00;45.90
33903;DHT22;20194;50.950;5.346;2023-03-23T04:08:41;13.00;44.90
33903;DHT22;20194;50.950;5.346;2023-03-23T04:11:09;13.00;44.20
33903;DHT22;20194;50.950;5.346;2023-03-23T04:13:36;13.00;44.90
33903;DHT22;20194;50.950;5.346;2023-03-23T04:16:02;13.00;44.50
33903;DHT22;20194;50.950;5.346;2023-03-23T04:18:29;13.00;43.80
33903;DHT22;20194;50.950;5.346;2023-03-23T04:20:58;13.00;44.20
33903;DHT22;20194;50.950;5.346;2023-03-23T04:23:26;12.90;44.40
33903;DHT22;20194;50.950;5.346;2023-03-23T04:25:52;13.00;43.80
33903;DHT22;20194;50.950;5.346;2023-03-23T04:28:22;12.90;44.10
33903;DHT22;20194;50.950;5.346;2023-03-23T04:30:50;13.00;43.10
33903;DHT22;20194;50.950;5.346;2023-03-23T04:33:19;13.00;43.30
33903;DHT22;20194;50.950;5.346;2023-03-23T04:35:46;13.00;43.30
33903;DHT22;20194;50.950;5.346;2023-03-23T04:38:15;13.00;42.80
33903;DHT22;20194;50.950;5.346;2023-03-23T04:40:43;13.00;42.60
33903;DHT22;20194;50.950;5.346;2023-03-23T04:43:09;13.00;42.80
33903;DHT22;20194;50.950;5.346;2023-03-23T04:45:37;13.00;42.20
33903;DHT22;20194;50.950;5.346;2023-03-23T04:48:07;13.00;41.80
33903;DHT22;20194;50.950;5.346;2023-03-23T04:50:34;12.90;41.00
33903;DHT22;20194;50.950;5.346;2023-03-23T04:53:02;12.90;41.50
33903;DHT22;20194;50.950;5.346;2023-03-23T04:55:34;12.90;41.40
33903;DHT22;20194;50.950;5.346;2023-03-23T04:58:05;12.90;41.50
33903;DHT22;20194;50.950;5.346;2023-03-23T05:00:32;12.90;40.50
33903;DHT22;20194;50.950;5.346;2023-03-23T05:02:58;12.90;40.90
33903;DHT22;20194;50.950;5.346;2023-03-23T05:05:26;12.80;40.50
33903;DHT22;20194;50.950;5.346;2023-03-23T05:07:54;12.80;40.80
33903;DHT22;20194;50.950;5.346;2023-03-23T05:10:21;12.90;40.30
33903;DHT22;20194;50.950;5.346;2023-03-23T05:12:47;12.80;40.80
33903;DHT22;20194;50.950;5.346;2023-03-23T05:15:14;12.80;39.80
33903;DHT22;20194;50.950;5.346;2023-03-23T05:17:41;12.80;39.80
33903;DHT22;20194;50.950;5.346;2023-03-23T05:20:18;12.80;40.40
33903;DHT22;20194;50.950;5.346;2023-03-23T05:22:46;12.80;40.90
33903;DHT22;20194;50.950;5.346;2023-03-23T05:25:15;12.70;41.10
33903;DHT22;20194;50.950;5.346;2023-03-23T05:27:41;12.80;41.10
33903;DHT22;20194;50.950;5.346;2023-03-23T05:30:14;12.80;41.50
33903;DHT22;20194;50.950;5.346;2023-03-23T05:32:43;12.80;41.10
33903;DHT22;20194;50.950;5.346;2023-03-23T05:35:11;12.80;41.40
33903;DHT22;20194;50.950;5.346;2023-03-23T05:37:37;12.70;41.70
33903;DHT22;20194;50.950;5.346;2023-03-23T05:40:04;12.70;41.90
33903;DHT22;20194;50.950;5.346;2023-03-23T05:42:32;12.70;42.60
33903;DHT22;20194;50.950;5.346;2023-03-23T05:45:00;12.70;43.40
33903;DHT22;20194;50.950;5.346;2023-03-23T05:47:26;12.70;43.20
33903;DHT22;20194;50.950;5.346;2023-03-23T05:49:52;12.70;43.10
33903;DHT22;20194;50.950;5.346;2023-03-23T05:52:19;12.70;42.70
33903;DHT22;20194;50.950;5.346;2023-03-23T05:54:45;12.60;43.00
33903;DHT22;20194;50.950;5.346;2023-03-23T05:57:11;12.60;43.20
33903;DHT22;20194;50.950;5.346;2023-03-23T05:59:37;12.60;43.50
33903;DHT22;20194;50.950;5.346;2023-03-23T06:02:04;12.60;43.60
33903;DHT22;20194;50.950;5.346;2023-03-23T06:04:30;12.60;44.40
33903;DHT22;20194;50.950;5.346;2023-03-23T06:07:02;12.60;44.10
33903;DHT22;20194;50.950;5.346;2023-03-23T06:09:27;12.60;44.00
33903;DHT22;20194;50.950;5.346;2023-03-23T06:11:53;12.60;44.40
33903;DHT22;20194;50.950;5.346;2023-03-23T06:14:19;12.60;43.80
33903;DHT22;20194;50.950;5.346;2023-03-23T06:16:45;12.60;43.60
33903;DHT22;20194;50.950;5.346;2023-03-23T06:19:11;12.60;43.50
33903;DHT22;20194;50.950;5.346;2023-03-23T06:21:37;12.60;43.30
33903;DHT22;20194;50.950;5.346;2023-03-23T06:24:03;12.60;43.10
33903;DHT22;20194;50.950;5.346;2023-03-23T06:26:33;12.70;42.60
33903;DHT22;20194;50.950;5.346;2023-03-23T06:28:59;12.70;42.40
33903;DHT22;20194;50.950;5.346;2023-03-23T06:31:26;12.60;42.50
33903;DHT22;20194;50.950;5.346;2023-03-23T06:33:52;12.60;41.90
33903;DHT22;20194;50.950;5.346;2023-03-23T06:36:18;12.60;42.00
33903;DHT22;20194;50.950;5.346;2023-03-23T06:38:45;12.70;41.10
33903;DHT22;20194;50.950;5.346;2023-03-23T06:41:11;12.70;41.40
33903;DHT22;20194;50.950;5.346;2023-03-23T06:43:37;12.70;41.00
33903;DHT22;20194;50.950;5.346;2023-03-23T06:46:08;12.70;39.20
33903;DHT22;20194;50.950;5.346;2023-03-23T06:48:34;12.70;40.40
33903;DHT22;20194;50.950;5.346;2023-03-23T06:50:59;12.70;40.20
33903;DHT22;20194;50.950;5.346;2023-03-23T06:53:25;12.80;39.50
33903;DHT22;20194;50.950;5.346;2023-03-23T06:55:51;12.80;37.90
33903;DHT22;20194;50.950;5.346;2023-03-23T06:58:17;12.80;38.90
33903;DHT22;20194;50.950;5.346;2023-03-23T07:00:43;12.80;37.80
33903;DHT22;20194;50.950;5.346;2023-03-23T07:03:09;12.80;37.70
33903;DHT22;20194;50.950;5.346;2023-03-23T07:05:35;12.80;36.60
33903;DHT22;20194;50.950;5.346;2023-03-23T07:08:02;12.80;36.50
33903;DHT22;20194;50.950;5.346;2023-03-23T07:10:28;12.80;36.40
33903;DHT22;20194;50.950;5.346;2023-03-23T07:12:54;12.80;36.20
33903;DHT22;20194;50.950;5.346;2023-03-23T07:15:21;12.90;36.60
33903;DHT22;20194;50.950;5.346;2023-03-23T07:17:47;12.90;34.40
33903;DHT22;20194;50.950;5.346;2023-03-23T07:20:13;12.90;35.60
33903;DHT22;20194;50.950;5.346;2023-03-23T07:22:39;12.90;34.70
33903;DHT22;20194;50.950;5.346;2023-03-23T07:25:05;12.90;33.60
33903;DHT22;20194;50.950;5.346;2023-03-23T07:27:31;13.00;33.90
33903;DHT22;20194;50.950;5.346;2023-03-23T07:29:57;13.00;33.00
33903;DHT22;20194;50.950;5.346;2023-03-23T07:32:23;13.10;32.50
33903;DHT22;20194;50.950;5.346;2023-03-23T07:34:49;13.10;31.70
33903;DHT22;20194;50.950;5.346;2023-03-23T07:37:16;13.10;31.30
33903;DHT22;20194;50.950;5.346;2023-03-23T07:39:42;13.10;30.80
33903;DHT22;20194;50.950;5.346;2023-03-23T07:42:09;13.10;31.20
33903;DHT22;20194;50.950;5.346;2023-03-23T07:44:35;13.20;31.40
33903;DHT22;20194;50.950;5.346;2023-03-23T07:47:01;13.20;31.30
33903;DHT22;20194;50.950;5.346;2023-03-23T07:49:26;13.20;31.50
33903;DHT22;20194;50.950;5.346;2023-03-23T07:51:52;13.10;32.40
33903;DHT22;20194;50.950;5.346;2023-03-23T07:54:18;13.20;34.20
33903;DHT22;20194;50.950;5.346;2023-03-23T07:56:44;13.10;34.70
33903;DHT22;20194;50.950;5.346;2023-03-23T07:59:11;13.10;38.40
33903;DHT22;20194;50.950;5.346;2023-03-23T08:01:38;13.10;37.90
33903;DHT22;20194;50.950;5.346;2023-03-23T08:04:04;13.10;37.50
33903;DHT22;20194;50.950;5.346;2023-03-23T08:06:32;13.10;36.80
33903;DHT22;20194;50.950;5.346;2023-03-23T08:08:59;13.10;37.10
33903;DHT22;20194;50.950;5.346;2023-03-23T08:11:26;13.10;36.70
33903;DHT22;20194;50.950;5.346;2023-03-23T08:13:51;13.20;35.10
33903;DHT22;20194;50.950;5.346;2023-03-23T08:16:17;13.20;35.30
33903;DHT22;20194;50.950;5.346;2023-03-23T08:18:45;13.20;33.60
33903;DHT22;20194;50.950;5.346;2023-03-23T08:21:11;13.10;34.50
33903;DHT22;20194;50.950;5.346;2023-03-23T08:23:38;13.10;35.10
33903;DHT22;20194;50.950;5.346;2023-03-23T08:26:08;13.20;35.00
33903;DHT22;20194;50.950;5.346;2023-03-23T08:28:35;13.20;34.80
33903;DHT22;20194;50.950;5.346;2023-03-23T08:31:07;13.20;34.60
33903;DHT22;20194;50.950;5.346;2023-03-23T08:33:33;13.20;35.70
33903;DHT22;20194;50.950;5.346;2023-03-23T08:36:00;13.00;38.30
33903;DHT22;20194;50.950;5.346;2023-03-23T08:38:26;12.90;40.80
33903;DHT22;20194;50.950;5.346;2023-03-23T08:40:58;12.80;42.50
33903;DHT22;20194;50.950;5.346;2023-03-23T08:43:24;12.50;47.60
33903;DHT22;20194;50.950;5.346;2023-03-23T08:45:50;12.40;50.00
33903;DHT22;20194;50.950;5.346;2023-03-23T08:48:17;11.90;57.60
33903;DHT22;20194;50.950;5.346;2023-03-23T08:50:43;11.60;63.90
33903;DHT22;20194;50.950;5.346;2023-03-23T08:53:09;11.70;63.90
33903;DHT22;20194;50.950;5.346;2023-03-23T08:55:35;11.90;63.40
33903;DHT22;20194;50.950;5.346;2023-03-23T08:58:02;11.90;61.80
33903;DHT22;20194;50.950;5.346;2023-03-23T09:00:29;11.90;63.70
33903;DHT22;20194;50.950;5.346;2023-03-23T09:02:55;11.80;62.00
33903;DHT22;20194;50.950;5.346;2023-03-23T09:05:24;11.80;63.50
33903;DHT22;20194;50.950;5.346;2023-03-23T09:07:51;11.90;62.80
33903;DHT22;20194;50.950;5.346;2023-03-23T09:10:17;11.70;63.20
33903;DHT22;20194;50.950;5.346;2023-03-23T09:12:44;11.70;65.30
33903;DHT22;20194;50.950;5.346;2023-03-23T09:15:13;11.70;63.30
33903;DHT22;20194;50.950;5.346;2023-03-23T09:17:42;11.40;65.50
33903;DHT22;20194;50.950;5.346;2023-03-23T09:20:09;11.30;66.50
33903;DHT22;20194;50.950;5.346;2023-03-23T09:22:47;11.40;66.60
33903;DHT22;20194;50.950;5.346;2023-03-23T09:25:15;11.40;67.20
33903;DHT22;20194;50.950;5.346;2023-03-23T09:27:42;11.50;67.70
33903;DHT22;20194;50.950;5.346;2023-03-23T09:30:11;11.50;68.60
33903;DHT22;20194;50.950;5.346;2023-03-23T09:32:38;11.70;69.60
33903;DHT22;20194;50.950;5.346;2023-03-23T09:35:06;11.80;69.90
33903;DHT22;20194;50.950;5.346;2023-03-23T09:37:38;11.90;69.80
33903;DHT22;20194;50.950;5.346;2023-03-23T09:40:05;12.00;68.10
33903;DHT22;20194;50.950;5.346;2023-03-23T09:50:38;12.20;68.90
33903;DHT22;20194;50.950;5.346;2023-03-23T09:53:22;12.20;68.00
33903;DHT22;20194;50.950;5.346;2023-03-23T09:55:49;12.30;69.10
33903;DHT22;20194;50.950;5.346;2023-03-23T09:58:33;12.20;68.40
33903;DHT22;20194;50.950;5.346;2023-03-23T10:03:42;12.20;69.30
33903;DHT22;20194;50.950;5.346;2023-03-23T10:06:11;12.10;70.80
33903;DHT22;20194;50.950;5.346;2023-03-23T10:08:41;12.10;71.10
33903;DHT22;20194;50.950;5.346;2023-03-23T10:16:22;12.10;70.50
33903;DHT22;20194;50.950;5.346;2023-03-23T10:19:15;12.00;65.40
33903;DHT22;20194;50.950;5.346;2023-03-23T10:21:56;11.80;66.00
33903;DHT22;20194;50.950;5.346;2023-03-23T10:24:34;11.80;68.20
33903;DHT22;20194;50.950;5.346;2023-03-23T10:27:54;11.70;67.90
33903;DHT22;20194;50.950;5.346;2023-03-23T10:30:17;11.70;68.60
33903;DHT22;20194;50.950;5.346;2023-03-23T10:33:10;11.80;69.50
33903;DHT22;20194;50.950;5.346;2023-03-23T10:41:17;12.00;69.80
33903;DHT22;20194;50.950;5.346;2023-03-23T10:43:44;12.00;69.80
33903;DHT22;20194;50.950;5.346;2023-03-23T10:46:15;12.10;71.70
33903;DHT22;20194;50.950;5.346;2023-03-23T10:48:43;12.20;71.50
33903;DHT22;20194;50.950;5.346;2023-03-23T10:51:13;12.20;71.60
33903;DHT22;20194;50.950;5.346;2023-03-23T10:53:49;12.20;72.30
33903;DHT22;20194;50.950;5.346;2023-03-23T10:56:27;12.30;73.00
33903;DHT22;20194;50.950;5.346;2023-03-23T10:58:54;12.40;72.60
33903;DHT22;20194;50.950;5.346;2023-03-23T11:01:30;12.40;70.40
33903;DHT22;20194;50.950;5.346;2023-03-23T11:03:56;12.40;70.80
33903;DHT22;20194;50.950;5.346;2023-03-23T11:06:24;12.40;71.10
33903;DHT22;20194;50.950;5.346;2023-03-23T11:08:57;12.40;71.60
33903;DHT22;20194;50.950;5.346;2023-03-23T11:11:32;12.30;71.20
33903;DHT22;20194;50.950;5.346;2023-03-23T11:14:19;12.30;71.10
33903;DHT22;20194;50.950;5.346;2023-03-23T11:16:56;12.30;70.70
33903;DHT22;20194;50.950;5.346;2023-03-23T11:19:25;12.30;70.90
33903;DHT22;20194;50.950;5.346;2023-03-23T11:21:54;12.30;70.30
33903;DHT22;20194;50.950;5.346;2023-03-23T11:24:26;12.30;70.60
33903;DHT22;20194;50.950;5.346;2023-03-23T11:26:52;12.40;70.70
33903;DHT22;20194;50.950;5.346;2023-03-23T11:29:22;12.40;69.80
33903;DHT22;20194;50.950;5.346;2023-03-23T11:32:02;12.30;70.70
33903;DHT22;20194;50.950;5.346;2023-03-23T11:34:40;12.20;72.20
33903;DHT22;20194;50.950;5.346;2023-03-23T11:37:15;12.20;72.80
33903;DHT22;20194;50.950;5.346;2023-03-23T11:40:29;12.20;74.50
33903;DHT22;20194;50.950;5.346;2023-03-23T11:45:35;12.70;77.10
33903;DHT22;20194;50.950;5.346;2023-03-23T11:58:26;13.30;68.60
33903;DHT22;20194;50.950;5.346;2023-03-23T12:12:45;13.70;68.50
33903;DHT22;20194;50.950;5.346;2023-03-23T12:18:02;13.80;66.40
33903;DHT22;20194;50.950;5.346;2023-03-23T12:20:54;13.80;65.00
33903;DHT22;20194;50.950;5.346;2023-03-23T12:26:30;13.80;65.80
33903;DHT22;20194;50.950;5.346;2023-03-23T12:31:53;13.90;63.30
33903;DHT22;20194;50.950;5.346;2023-03-23T12:34:47;14.00;62.10
33903;DHT22;20194;50.950;5.346;2023-03-23T12:37:40;14.00;59.50
33903;DHT22;20194;50.950;5.346;2023-03-23T12:43:32;14.00;60.60
33903;DHT22;20194;50.950;5.346;2023-03-23T12:46:02;14.00;62.30
33903;DHT22;20194;50.950;5.346;2023-03-23T12:48:40;14.00;61.60
33903;DHT22;20194;50.950;5.346;2023-03-23T12:51:43;14.00;63.10
33903;DHT22;20194;50.950;5.346;2023-03-23T12:54:21;14.00;62.40
33903;DHT22;20194;50.950;5.346;2023-03-23T12:56:57;13.80;61.40
33903;DHT22;20194;50.950;5.346;2023-03-23T13:02:45;13.90;61.50
33903;DHT22;20194;50.950;5.346;2023-03-23T13:05:24;14.00;62.90
33903;DHT22;20194;50.950;5.346;2023-03-23T13:10:42;14.10;59.30
33903;DHT22;20194;50.950;5.346;2023-03-23T13:13:19;14.10;59.50
33903;DHT22;20194;50.950;5.346;2023-03-23T13:16:06;14.20;60.40
33903;DHT22;20194;50.950;5.346;2023-03-23T13:21:32;14.40;57.50
33903;DHT22;20194;50.950;5.346;2023-03-23T13:24:13;14.50;56.10
33903;DHT22;20194;50.950;5.346;2023-03-23T13:26:42;14.40;53.10
33903;DHT22;20194;50.950;5.346;2023-03-23T13:29:20;14.40;54.50
33903;DHT22;20194;50.950;5.346;2023-03-23T13:31:49;14.30;54.20
33903;DHT22;20194;50.950;5.346;2023-03-23T13:34:23;14.30;54.30
33903;DHT22;20194;50.950;5.346;2023-03-23T13:37:04;14.20;55.30
33903;DHT22;20194;50.950;5.346;2023-03-23T13:39:49;14.00;56.80
33903;DHT22;20194;50.950;5.346;2023-03-23T13:52:39;13.40;68.70
33903;DHT22;20194;50.950;5.346;2023-03-23T13:58:26;13.30;67.30
33903;DHT22;20194;50.950;5.346;2023-03-23T14:01:16;13.50;70.60
33903;DHT22;20194;50.950;5.346;2023-03-23T14:03:48;13.70;71.80
33903;DHT22;20194;50.950;5.346;2023-03-23T14:06:21;14.00;73.30
33903;DHT22;20194;50.950;5.346;2023-03-23T14:08:52;14.10;72.30
33903;DHT22;20194;50.950;5.346;2023-03-23T14:13:50;14.20;66.70
33903;DHT22;20194;50.950;5.346;2023-03-23T14:16:26;14.30;67.50
33903;DHT22;20194;50.950;5.346;2023-03-23T14:18:56;14.40;65.40
33903;DHT22;20194;50.950;5.346;2023-03-23T14:21:34;14.50;61.90
33903;DHT22;20194;50.950;5.346;2023-03-23T14:24:09;14.50;61.30
33903;DHT22;20194;50.950;5.346;2023-03-23T14:26:35;14.50;60.60
33903;DHT22;20194;50.950;5.346;2023-03-23T14:29:03;14.50;58.30
33903;DHT22;20194;50.950;5.346;2023-03-23T14:31:29;14.50;59.60
33903;DHT22;20194;50.950;5.346;2023-03-23T14:33:56;14.50;58.70
33903;DHT22;20194;50.950;5.346;2023-03-23T14:36:29;14.70;58.00
33903;DHT22;20194;50.950;5.346;2023-03-23T14:39:07;14.80;55.30
33903;DHT22;20194;50.950;5.346;2023-03-23T14:41:38;14.80;47.90
33903;DHT22;20194;50.950;5.346;2023-03-23T14:44:08;14.90;49.30
33903;DHT22;20194;50.950;5.346;2023-03-23T14:46:34;14.90;44.80
33903;DHT22;20194;50.950;5.346;2023-03-23T14:49:05;14.90;44.90
33903;DHT22;20194;50.950;5.346;2023-03-23T14:51:31;14.80;43.90
33903;DHT22;20194;50.950;5.346;2023-03-23T14:53:59;14.70;43.10
33903;DHT22;20194;50.950;5.346;2023-03-23T14:56:36;14.70;47.00
33903;DHT22;20194;50.950;5.346;2023-03-23T14:59:06;14.60;46.20
33903;DHT22;20194;50.950;5.346;2023-03-23T15:01:35;14.60;48.70
33903;DHT22;20194;50.950;5.346;2023-03-23T15:04:06;14.50;49.50
33903;DHT22;20194;50.950;5.346;2023-03-23T15:06:34;14.60;50.90
33903;DHT22;20194;50.950;5.346;2023-03-23T15:09:13;14.70;48.70
33903;DHT22;20194;50.950;5.346;2023-03-23T15:11:40;14.70;47.70
33903;DHT22;20194;50.950;5.346;2023-03-23T15:14:17;14.70;45.80
33903;DHT22;20194;50.950;5.346;2023-03-23T15:16:50;14.70;48.40
33903;DHT22;20194;50.950;5.346;2023-03-23T15:19:32;14.70;45.40
33903;DHT22;20194;50.950;5.346;2023-03-23T15:25:29;14.60;43.10
33903;DHT22;20194;50.950;5.346;2023-03-23T15:27:57;14.60;45.10
33903;DHT22;20194;50.950;5.346;2023-03-23T15:32:59;14.50;48.10
33903;DHT22;20194;50.950;5.346;2023-03-23T15:35:26;14.60;46.90
33903;DHT22;20194;50.950;5.346;2023-03-23T15:37:58;14.50;47.10
33903;DHT22;20194;50.950;5.346;2023-03-23T15:40:25;14.50;47.70
33903;DHT22;20194;50.950;5.346;2023-03-23T15:43:18;14.60;48.60
33903;DHT22;20194;50.950;5.346;2023-03-23T15:46:04;14.70;44.60
33903;DHT22;20194;50.950;5.346;2023-03-23T15:48:32;14.60;43.30
33903;DHT22;20194;50.950;5.346;2023-03-23T15:50:59;14.70;40.00
33903;DHT22;20194;50.950;5.346;2023-03-23T15:53:30;14.60;41.50
33903;DHT22;20194;50.950;5.346;2023-03-23T15:55:58;14.60;40.80
33903;DHT22;20194;50.950;5.346;2023-03-23T15:58:24;14.60;39.60
33903;DHT22;20194;50.950;5.346;2023-03-23T16:00:50;14.70;35.90
33903;DHT22;20194;50.950;5.346;2023-03-23T16:03:22;14.70;35.00
33903;DHT22;20194;50.950;5.346;2023-03-23T16:05:50;14.80;32.40
33903;DHT22;20194;50.950;5.346;2023-03-23T16:08:16;14.90;29.80
33903;DHT22;20194;50.950;5.346;2023-03-23T16:10:42;14.90;31.40
33903;DHT22;20194;50.950;5.346;2023-03-23T16:13:07;14.90;30.00
33903;DHT22;20194;50.950;5.346;2023-03-23T16:15:33;14.90;28.50
33903;DHT22;20194;50.950;5.346;2023-03-23T16:18:00;15.00;26.60
33903;DHT22;20194;50.950;5.346;2023-03-23T16:20:28;15.00;24.90
33903;DHT22;20194;50.950;5.346;2023-03-23T16:22:54;14.90;25.00
33903;DHT22;20194;50.950;5.346;2023-03-23T16:25:20;14.90;24.50
33903;DHT22;20194;50.950;5.346;2023-03-23T16:27:46;14.90;26.10
33903;DHT22;20194;50.950;5.346;2023-03-23T16:30:34;14.90;24.80
33903;DHT22;20194;50.950;5.346;2023-03-23T16:33:00;15.00;24.40
33903;DHT22;20194;50.950;5.346;2023-03-23T16:35:26;15.00;21.10
33903;DHT22;20194;50.950;5.346;2023-03-23T16:37:54;15.00;23.90
33903;DHT22;20194;50.950;5.346;2023-03-23T16:40:20;15.00;24.20
33903;DHT22;20194;50.950;5.346;2023-03-23T16:42:47;14.90;22.70
33903;DHT22;20194;50.950;5.346;2023-03-23T16:45:14;15.00;23.40
33903;DHT22;20194;50.950;5.346;2023-03-23T16:47:40;15.00;24.50
33903;DHT22;20194;50.950;5.346;2023-03-23T16:50:08;15.00;21.10
33903;DHT22;20194;50.950;5.346;2023-03-23T16:52:37;15.00;21.60
33903;DHT22;20194;50.950;5.346;2023-03-23T16:55:03;15.00;19.30
33903;DHT22;20194;50.950;5.346;2023-03-23T16:57:29;15.00;21.00
33903;DHT22;20194;50.950;5.346;2023-03-23T16:59:56;14.90;23.50
33903;DHT22;20194;50.950;5.346;2023-03-23T17:02:23;14.90;21.40
33903;DHT22;20194;50.950;5.346;2023-03-23T17:04:49;14.90;23.00
33903;DHT22;20194;50.950;5.346;2023-03-23T17:07:15;14.80;21.90
33903;DHT22;20194;50.950;5.346;2023-03-23T17:09:41;14.80;22.10
33903;DHT22;20194;50.950;5.346;2023-03-23T17:12:07;14.80;22.00
33903;DHT22;20194;50.950;5.346;2023-03-23T17:14:33;14.80;23.50
33903;DHT22;20194;50.950;5.346;2023-03-23T17:16:59;14.80;22.30
33903;DHT22;20194;50.950;5.346;2023-03-23T17:19:25;14.80;21.70
33903;DHT22;20194;50.950;5.346;2023-03-23T17:21:51;14.70;22.90
33903;DHT22;20194;50.950;5.346;2023-03-23T17:24:17;14.70;23.80
33903;DHT22;20194;50.950;5.346;2023-03-23T17:26:43;14.70;22.00
33903;DHT22;20194;50.950;5.346;2023-03-23T17:29:09;14.70;22.70
33903;DHT22;20194;50.950;5.346;2023-03-23T17:31:35;14.70;24.60
33903;DHT22;20194;50.950;5.346;2023-03-23T17:34:00;14.70;24.00
33903;DHT22;20194;50.950;5.346;2023-03-23T17:36:27;14.70;24.00
33903;DHT22;20194;50.950;5.346;2023-03-23T17:38:53;14.60;25.00
33903;DHT22;20194;50.950;5.346;2023-03-23T17:41:19;14.70;24.80